createdAt,value
2022-09-03T00:00:54.833Z,98219.38
2022-09-03T00:02:27.974Z,98213.03
2022-09-03T00:03:45.011Z,98223.56
2022-09-03T00:04:57.714Z,98215.34
2022-09-03T00:06:10.604Z,98219.06
2022-09-03T00:07:26.682Z,98221.25
2022-09-03T00:09:00.542Z,98221.09
2022-09-03T00:10:15.643Z,98220.88
2022-09-03T00:11:28.988Z,98227.28
2022-09-03T00:12:40.708Z,98215.03
2022-09-03T00:13:50.292Z,98222.31
2022-09-03T00:15:02.453Z,98216.87
2022-09-03T00:16:12.881Z,98211.34
2022-09-03T00:17:22.933Z,98217.03
2022-09-03T00:18:31.741Z,98221.53
2022-09-03T00:19:42.266Z,98222.56
2022-09-03T00:20:56.369Z,98220.56
2022-09-03T00:22:11.620Z,98221.44
2022-09-03T00:23:28.241Z,98218.69
2022-09-03T00:24:37.222Z,98222.63
2022-09-03T00:26:17.843Z,98215.34
2022-09-03T00:27:27.324Z,98224.53
2022-09-03T00:28:46.045Z,98211.41
2022-09-03T00:30:00.885Z,98222.38
2022-09-03T00:31:16.739Z,98217.44
2022-09-03T00:32:41.546Z,98216.87
2022-09-03T00:33:48.390Z,98217.94
2022-09-03T00:34:58.185Z,98220.72
2022-09-03T00:36:04.219Z,98222.09
2022-09-03T00:37:10.276Z,98215.53
2022-09-03T00:38:18.210Z,98220.25
2022-09-03T00:39:23.949Z,98221.22
2022-09-03T00:40:40.035Z,98219.66
2022-09-03T00:42:07.105Z,98210.25
2022-09-03T00:43:48.419Z,98222.56
2022-09-03T00:45:01.155Z,98221.16
2022-09-03T00:46:21.315Z,98219.16
2022-09-03T00:48:05.656Z,98218.41
2022-09-03T00:49:50.237Z,98217.78
2022-09-03T00:51:17.781Z,98223.19
2022-09-03T00:52:39.819Z,98220.44
2022-09-03T00:54:08.905Z,98221.16
2022-09-03T00:55:36.168Z,98222.00
2022-09-03T00:56:59.986Z,98223.56
2022-09-03T00:58:18.020Z,98232.37
2022-09-03T00:59:57.873Z,98222.00
2022-09-03T01:01:17.362Z,98217.22
2022-09-03T01:02:47.084Z,98222.12
2022-09-03T01:04:08.481Z,98223.50
2022-09-03T01:05:23.135Z,98221.38
2022-09-03T01:06:44.828Z,98227.63
2022-09-03T01:08:09.041Z,98226.38
2022-09-03T01:09:49.347Z,98224.34
2022-09-03T01:11:01.719Z,98225.94
2022-09-03T01:12:36.440Z,98226.91
2022-09-03T01:13:48.848Z,98233.72
2022-09-03T01:15:13.047Z,98237.28
2022-09-03T01:16:21.965Z,98233.00
2022-09-03T01:17:33.845Z,98237.00
2022-09-03T01:18:53.505Z,98235.09
2022-09-03T01:20:12.934Z,98234.16
2022-09-03T01:21:53.337Z,98243.66
2022-09-03T01:23:10.023Z,98246.06
2022-09-03T01:25:00.453Z,98238.38
2022-09-03T01:26:28.249Z,98242.72
2022-09-03T01:27:47.013Z,98247.72
2022-09-03T01:28:56.848Z,98235.84
2022-09-03T01:30:06.702Z,98239.56
2022-09-03T01:31:40.485Z,98246.53
2022-09-03T01:33:11.799Z,98244.56
2022-09-03T01:34:25.751Z,98247.56
2022-09-03T01:35:47.442Z,98244.66
2022-09-03T01:37:24.632Z,98239.63
2022-09-03T01:38:33.174Z,98251.38
2022-09-03T01:39:54.371Z,98237.00
2022-09-03T01:41:56.137Z,98241.94
2022-09-03T01:43:35.977Z,98239.66
2022-09-03T01:45:06.705Z,98249.81
2022-09-03T01:46:25.281Z,98249.22
2022-09-03T01:47:55.267Z,98250.84
2022-09-03T01:49:22.905Z,98244.75
2022-09-03T01:50:58.089Z,98252.81
2022-09-03T01:52:26.513Z,98252.91
2022-09-03T01:55:26.775Z,98250.72
2022-09-03T01:56:42.069Z,98247.78
2022-09-03T01:57:57.533Z,98250.28
2022-09-03T01:59:21.573Z,98243.34
2022-09-03T02:00:26.331Z,98246.47
2022-09-03T02:01:37.782Z,98244.34
2022-09-03T02:02:43.834Z,98250.25
2022-09-03T02:03:50.538Z,98244.56
2022-09-03T02:05:02.969Z,98247.50
2022-09-03T02:06:08.258Z,98250.84
2022-09-03T02:07:11.435Z,98253.19
2022-09-03T02:08:14.583Z,98245.94
2022-09-03T02:09:18.991Z,98251.06
2022-09-03T02:10:33.774Z,98250.25
2022-09-03T02:11:37.512Z,98251.75
2022-09-03T02:12:44.246Z,98252.62
2022-09-03T02:13:58.736Z,98247.63
2022-09-03T02:15:05.334Z,98249.47
2022-09-03T02:16:14.881Z,98244.50
2022-09-03T02:17:18.043Z,98240.72
2022-09-03T02:18:30.346Z,98246.50
2022-09-03T02:19:35.479Z,98253.53
2022-09-03T02:20:39.143Z,98245.41
2022-09-03T02:21:53.557Z,98250.91
2022-09-03T02:22:58.060Z,98254.50
2022-09-03T02:24:01.295Z,98256.16
2022-09-03T02:25:04.585Z,98258.19
2022-09-03T02:26:10.751Z,98259.19
2022-09-03T02:27:14.244Z,98251.94
2022-09-03T02:28:17.868Z,98255.59
2022-09-03T02:29:21.860Z,98250.84
2022-09-03T02:30:25.362Z,98251.62
2022-09-03T02:31:29.121Z,98248.22
2022-09-03T02:32:33.022Z,98249.53
2022-09-03T02:33:39.462Z,98248.97
2022-09-03T02:34:44.337Z,98250.41
2022-09-03T02:35:47.905Z,98247.78
2022-09-03T02:36:50.956Z,98250.94
2022-09-03T02:37:54.266Z,98248.19
2022-09-03T02:38:57.221Z,98249.75
2022-09-03T02:40:00.345Z,98252.38
2022-09-03T02:41:03.485Z,98252.03
2022-09-03T02:42:06.602Z,98247.06
2022-09-03T02:43:34.855Z,98253.13
2022-09-03T02:44:42.433Z,98249.25
2022-09-03T02:45:51.785Z,98246.91
2022-09-03T02:47:03.553Z,98245.53
2022-09-03T02:48:09.638Z,98247.84
2022-09-03T02:49:12.882Z,98246.25
2022-09-03T02:50:16.076Z,98249.53
2022-09-03T02:51:19.122Z,98250.19
2022-09-03T02:52:22.035Z,98247.37
2022-09-03T02:53:25.262Z,98247.97
2022-09-03T02:54:29.169Z,98250.50
2022-09-03T02:55:32.130Z,98249.28
2022-09-03T02:56:35.378Z,98251.03
2022-09-03T02:57:38.786Z,98249.41
2022-09-03T02:58:41.760Z,98257.94
2022-09-03T02:59:45.786Z,98252.62
2022-09-03T03:00:49.647Z,98251.31
2022-09-03T03:01:52.578Z,98250.34
2022-09-03T03:02:56.763Z,98249.84
2022-09-03T03:03:59.745Z,98248.16
2022-09-03T03:05:02.751Z,98249.59
2022-09-03T03:06:07.295Z,98245.47
2022-09-03T03:07:10.279Z,98245.00
2022-09-03T03:08:15.466Z,98251.50
2022-09-03T03:09:19.037Z,98250.13
2022-09-03T03:10:22.012Z,98249.69
2022-09-03T03:11:25.663Z,98243.13
2022-09-03T03:12:31.032Z,98239.56
2022-09-03T03:13:35.815Z,98242.31
2022-09-03T03:14:38.918Z,98245.25
2022-09-03T03:15:42.397Z,98244.16
2022-09-03T03:16:45.416Z,98246.72
2022-09-03T03:17:48.791Z,98245.66
2022-09-03T03:18:53.141Z,98247.06
2022-09-03T03:19:55.988Z,98247.63
2022-09-03T03:21:08.252Z,98244.34
2022-09-03T03:22:11.159Z,98247.13
2022-09-03T03:23:14.556Z,98247.28
2022-09-03T03:24:17.474Z,98251.88
2022-09-03T03:25:20.558Z,98251.50
2022-09-03T03:26:24.488Z,98255.53
2022-09-03T03:27:28.123Z,98263.03
2022-09-03T03:28:34.591Z,98261.19
2022-09-03T03:29:37.594Z,98257.16
2022-09-03T03:30:43.276Z,98261.47
2022-09-03T03:31:46.431Z,98261.22
2022-09-03T03:32:49.724Z,98263.13
2022-09-03T03:33:58.336Z,98259.56
2022-09-03T03:35:01.191Z,98267.50
2022-09-03T03:36:15.781Z,98264.41
2022-09-03T03:37:18.755Z,98271.78
2022-09-03T03:38:21.782Z,98262.19
2022-09-03T03:39:24.813Z,98270.19
2022-09-03T03:40:28.187Z,98267.50
2022-09-03T03:41:34.005Z,98264.94
2022-09-03T03:42:37.065Z,98267.31
2022-09-03T03:43:39.997Z,98271.09
2022-09-03T03:44:44.445Z,98261.19
2022-09-03T03:45:59.961Z,98269.16
2022-09-03T03:47:05.396Z,98267.06
2022-09-03T03:48:08.444Z,98271.56
2022-09-03T03:49:12.052Z,98269.03
2022-09-03T03:50:15.146Z,98272.84
2022-09-03T03:51:18.916Z,98279.13
2022-09-03T03:52:21.803Z,98276.03
2022-09-03T03:53:24.770Z,98267.31
2022-09-03T03:54:27.684Z,98272.16
2022-09-03T03:55:35.069Z,98269.53
2022-09-03T03:56:38.694Z,98268.69
2022-09-03T03:57:41.776Z,98275.12
2022-09-03T03:58:48.754Z,98272.69
2022-09-03T03:59:51.754Z,98267.66
2022-09-03T04:00:54.737Z,98274.41
2022-09-03T04:01:57.807Z,98272.75
2022-09-03T04:03:01.089Z,98269.63
2022-09-03T04:04:04.123Z,98276.63
2022-09-03T04:05:07.383Z,98280.97
2022-09-03T04:06:14.276Z,98283.00
2022-09-03T04:07:17.204Z,98277.87
2022-09-03T04:08:20.171Z,98275.19
2022-09-03T04:09:23.095Z,98284.84
2022-09-03T04:10:25.986Z,98287.38
2022-09-03T04:11:28.807Z,98284.56
2022-09-03T04:12:31.700Z,98284.84
2022-09-03T04:13:37.520Z,98288.84
2022-09-03T04:14:40.433Z,98297.22
2022-09-03T04:15:43.473Z,98295.94
2022-09-03T04:16:49.398Z,98293.03
2022-09-03T04:17:55.575Z,98290.09
2022-09-03T04:18:59.018Z,98296.25
2022-09-03T04:20:02.232Z,98292.66
2022-09-03T04:21:11.477Z,98297.88
2022-09-03T04:22:16.102Z,98295.75
2022-09-03T04:23:19.283Z,98300.19
2022-09-03T04:24:22.664Z,98297.81
2022-09-03T04:25:25.526Z,98301.44
2022-09-03T04:26:31.805Z,98298.28
2022-09-03T04:27:34.820Z,98295.75
2022-09-03T04:28:38.468Z,98303.91
2022-09-03T04:29:41.317Z,98290.34
2022-09-03T04:30:47.508Z,98298.72
2022-09-03T04:32:10.824Z,98292.81
2022-09-03T04:33:16.157Z,98300.19
2022-09-03T04:34:19.465Z,98294.47
2022-09-03T04:35:24.082Z,98292.63
2022-09-03T04:36:28.785Z,98302.94
2022-09-03T04:37:33.499Z,98298.53
2022-09-03T04:38:39.057Z,98306.34
2022-09-03T04:39:42.149Z,98310.22
2022-09-03T04:40:52.684Z,98310.53
2022-09-03T04:41:55.686Z,98307.91
2022-09-03T04:42:59.675Z,98310.16
2022-09-03T04:44:02.773Z,98314.72
2022-09-03T04:45:06.659Z,98313.16
2022-09-03T04:46:17.625Z,98313.34
2022-09-03T04:47:21.233Z,98309.34
2022-09-03T04:48:24.444Z,98313.81
2022-09-03T04:49:27.377Z,98314.72
2022-09-03T04:50:32.759Z,98318.66
2022-09-03T04:51:38.357Z,98303.50
2022-09-03T04:52:42.004Z,98308.13
2022-09-03T04:53:47.432Z,98309.69
2022-09-03T04:54:51.229Z,98310.53
2022-09-03T04:55:54.100Z,98313.34
2022-09-03T04:56:57.039Z,98316.44
2022-09-03T04:58:00.093Z,98312.19
2022-09-03T04:59:06.416Z,98308.47
2022-09-03T05:00:12.112Z,98309.13
2022-09-03T05:01:23.917Z,98310.22
2022-09-03T05:02:30.961Z,98312.38
2022-09-03T05:03:34.654Z,98312.62
2022-09-03T05:04:37.493Z,98312.53
2022-09-03T05:05:40.536Z,98315.81
2022-09-03T05:06:45.666Z,98320.78
2022-09-03T05:07:48.622Z,98316.06
2022-09-03T05:08:53.170Z,98309.63
2022-09-03T05:09:57.211Z,98305.75
2022-09-03T05:11:01.120Z,98308.25
2022-09-03T05:12:04.366Z,98310.44
2022-09-03T05:13:07.367Z,98313.88
2022-09-03T05:14:12.995Z,98313.72
2022-09-03T05:15:16.637Z,98310.81
2022-09-03T05:16:20.669Z,98316.06
2022-09-03T05:17:23.713Z,98320.88
2022-09-03T05:18:26.584Z,98319.50
2022-09-03T05:19:29.501Z,98322.09
2022-09-03T05:20:33.068Z,98323.94
2022-09-03T05:21:36.975Z,98320.28
2022-09-03T05:22:39.848Z,98312.56
2022-09-03T05:23:45.773Z,98323.25
2022-09-03T05:24:49.290Z,98318.78
2022-09-03T05:25:58.605Z,98319.75
2022-09-03T05:27:02.580Z,98315.22
2022-09-03T05:28:05.557Z,98316.97
2022-09-03T05:29:08.672Z,98316.97
2022-09-03T05:30:12.060Z,98321.50
2022-09-03T05:31:18.535Z,98318.13
2022-09-03T05:32:21.620Z,98320.12
2022-09-03T05:33:25.104Z,98323.53
2022-09-03T05:34:28.086Z,98317.34
2022-09-03T05:35:31.794Z,98318.19
2022-09-03T05:36:37.175Z,98317.25
2022-09-03T05:37:40.110Z,98323.75
2022-09-03T05:38:43.669Z,98313.09
2022-09-03T05:39:46.574Z,98313.88
2022-09-03T05:40:49.485Z,98319.13
2022-09-03T05:41:52.661Z,98314.84
2022-09-03T05:42:58.816Z,98308.03
2022-09-03T05:44:01.889Z,98312.66
2022-09-03T05:45:13.725Z,98314.38
2022-09-03T05:46:18.643Z,98313.12
2022-09-03T05:47:21.948Z,98317.47
2022-09-03T05:48:25.017Z,98320.09
2022-09-03T05:49:31.920Z,98314.22
2022-09-03T05:50:35.215Z,98321.22
2022-09-03T05:51:42.756Z,98318.75
2022-09-03T05:52:45.594Z,98325.09
2022-09-03T05:53:49.748Z,98316.87
2022-09-03T05:54:52.646Z,98321.53
2022-09-03T05:56:00.384Z,98325.09
2022-09-03T05:57:03.380Z,98323.53
2022-09-03T05:58:06.376Z,98327.28
2022-09-03T05:59:10.606Z,98320.91
2022-09-03T06:00:13.564Z,98326.94
2022-09-03T06:01:17.979Z,98328.66
2022-09-03T06:02:21.015Z,98327.75
2022-09-03T06:03:25.467Z,98324.63
2022-09-03T06:04:28.645Z,98326.00
2022-09-03T06:05:31.525Z,98319.97
2022-09-03T06:06:36.742Z,98323.16
2022-09-03T06:07:40.192Z,98319.00
2022-09-03T06:08:45.133Z,98323.34
2022-09-03T06:09:48.022Z,98327.50
2022-09-03T06:10:50.920Z,98322.66
2022-09-03T06:11:54.614Z,98324.25
2022-09-03T06:13:04.020Z,98330.59
2022-09-03T06:14:08.785Z,98335.62
2022-09-03T06:15:11.949Z,98327.81
2022-09-03T06:16:16.009Z,98323.44
2022-09-03T06:17:19.162Z,98318.03
2022-09-03T06:18:22.032Z,98312.72
2022-09-03T06:19:25.086Z,98323.22
2022-09-03T06:20:29.998Z,98318.81
2022-09-03T06:21:33.751Z,98323.31
2022-09-03T06:22:36.662Z,98321.50
2022-09-03T06:23:45.765Z,98326.06
2022-09-03T06:24:50.134Z,98324.47
2022-09-03T06:26:12.953Z,98325.53
2022-09-03T06:27:15.832Z,98322.94
2022-09-03T06:28:18.799Z,98325.34
2022-09-03T06:29:26.283Z,98320.22
2022-09-03T06:30:29.105Z,98326.75
2022-09-03T06:31:32.204Z,98326.47
2022-09-03T06:32:35.240Z,98318.09
2022-09-03T06:33:38.919Z,98322.16
2022-09-03T06:34:45.916Z,98319.66
2022-09-03T06:35:52.103Z,98317.81
2022-09-03T06:36:54.934Z,98312.34
2022-09-03T06:38:00.170Z,98319.81
2022-09-03T06:39:03.425Z,98323.56
2022-09-03T06:40:13.367Z,98314.66
2022-09-03T06:41:25.374Z,98306.63
2022-09-03T06:42:29.271Z,98319.53
2022-09-03T06:43:35.317Z,98318.09
2022-09-03T06:44:38.152Z,98319.75
2022-09-03T06:45:41.091Z,98322.63
2022-09-03T06:46:44.244Z,98321.28
2022-09-03T06:47:47.144Z,98319.97
2022-09-03T06:48:53.690Z,98314.13
2022-09-03T06:49:56.702Z,98315.00
2022-09-03T06:51:07.016Z,98311.47
2022-09-03T06:52:09.934Z,98319.41
2022-09-03T06:53:12.781Z,98317.91
2022-09-03T06:54:16.564Z,98322.13
2022-09-03T06:55:19.612Z,98319.81
2022-09-03T06:56:27.008Z,98321.38
2022-09-03T06:57:30.899Z,98320.25
2022-09-03T06:58:38.046Z,98314.19
2022-09-03T06:59:41.061Z,98306.12
2022-09-03T07:00:45.018Z,98307.47
2022-09-03T07:01:48.336Z,98310.72
2022-09-03T07:02:59.632Z,98315.06
2022-09-03T07:04:05.207Z,98307.03
2022-09-03T07:05:09.333Z,98315.53
2022-09-03T07:06:15.477Z,98314.38
2022-09-03T07:07:18.932Z,98318.56
2022-09-03T07:08:21.887Z,98319.31
2022-09-03T07:09:24.907Z,98312.06
2022-09-03T07:10:28.341Z,98314.19
2022-09-03T07:11:33.703Z,98311.59
2022-09-03T07:12:37.866Z,98313.94
2022-09-03T07:13:43.878Z,98313.59
2022-09-03T07:14:47.671Z,98312.81
2022-09-03T07:16:24.011Z,98314.66
2022-09-03T07:17:26.944Z,98315.09
2022-09-03T07:18:31.915Z,98320.97
2022-09-03T07:19:34.818Z,98319.53
2022-09-03T07:20:37.731Z,98319.44
2022-09-03T07:21:50.211Z,98319.28
2022-09-03T07:22:57.063Z,98307.41
2022-09-03T07:24:00.730Z,98315.25
2022-09-03T07:25:04.374Z,98313.34
2022-09-03T07:26:11.106Z,98312.66
2022-09-03T07:27:15.124Z,98307.28
2022-09-03T07:28:18.275Z,98305.19
2022-09-03T07:29:21.647Z,98309.87
2022-09-03T07:30:26.799Z,98308.63
2022-09-03T07:31:35.511Z,98307.06
2022-09-03T07:32:40.735Z,98300.59
2022-09-03T07:33:43.723Z,98308.19
2022-09-03T07:34:46.636Z,98303.47
2022-09-03T07:35:50.388Z,98301.19
2022-09-03T07:36:54.253Z,98308.84
2022-09-03T07:37:57.303Z,98309.87
2022-09-03T07:39:00.297Z,98314.31
2022-09-03T07:40:03.649Z,98312.34
2022-09-03T07:41:08.535Z,98310.38
2022-09-03T07:42:11.480Z,98312.00
2022-09-03T07:43:14.714Z,98314.09
2022-09-03T07:44:23.119Z,98316.22
2022-09-03T07:45:26.000Z,98319.59
2022-09-03T07:46:29.320Z,98318.59
2022-09-03T07:47:32.542Z,98314.94
2022-09-03T07:48:37.490Z,98325.78
2022-09-03T07:49:40.868Z,98319.22
2022-09-03T07:50:44.260Z,98323.56
2022-09-03T07:51:50.942Z,98321.91
2022-09-03T07:52:58.988Z,98326.97
2022-09-03T07:54:06.496Z,98323.47
2022-09-03T07:55:10.179Z,98325.63
2022-09-03T07:56:13.988Z,98319.72
2022-09-03T07:57:17.167Z,98323.00
2022-09-03T07:58:25.425Z,98322.13
2022-09-03T07:59:28.577Z,98326.50
2022-09-03T08:00:34.246Z,98319.34
2022-09-03T08:01:38.420Z,98329.78
2022-09-03T08:02:46.459Z,98320.75
2022-09-03T08:03:51.490Z,98330.78
2022-09-03T08:04:54.469Z,98323.00
2022-09-03T08:06:07.790Z,98324.72
2022-09-03T08:07:12.136Z,98328.72
2022-09-03T08:08:20.996Z,98322.59
2022-09-03T08:09:24.116Z,98331.56
2022-09-03T08:10:29.067Z,98326.84
2022-09-03T08:11:33.683Z,98327.16
2022-09-03T08:12:36.553Z,98328.88
2022-09-03T08:13:41.016Z,98330.25
2022-09-03T08:14:44.021Z,98332.69
2022-09-03T08:15:57.240Z,98338.03
2022-09-03T08:17:00.521Z,98335.03
2022-09-03T08:18:05.971Z,98328.34
2022-09-03T08:19:09.532Z,98325.41
2022-09-03T08:20:12.996Z,98332.91
2022-09-03T08:21:18.966Z,98328.84
2022-09-03T08:22:22.926Z,98330.03
2022-09-03T08:23:25.841Z,98336.88
2022-09-03T08:24:28.911Z,98326.31
2022-09-03T08:25:31.813Z,98331.66
2022-09-03T08:26:38.178Z,98335.97
2022-09-03T08:27:41.668Z,98332.81
2022-09-03T08:28:44.983Z,98328.72
2022-09-03T08:29:48.835Z,98323.34
2022-09-03T08:30:51.747Z,98318.41
2022-09-03T08:31:54.769Z,98321.38
2022-09-03T08:32:57.760Z,98321.41
2022-09-03T08:34:06.989Z,98326.91
2022-09-03T08:35:10.242Z,98329.41
2022-09-03T08:36:26.100Z,98333.13
2022-09-03T08:37:29.277Z,98333.03
2022-09-03T08:38:34.142Z,98331.75
2022-09-03T08:39:37.171Z,98327.59
2022-09-03T08:40:40.276Z,98333.84
2022-09-03T08:41:58.444Z,98323.47
2022-09-03T08:43:19.312Z,98328.69
2022-09-03T08:44:41.206Z,98332.94
2022-09-03T08:45:44.063Z,98328.97
2022-09-03T08:47:02.145Z,98325.69
2022-09-03T08:48:10.601Z,98328.75
2022-09-03T08:49:17.722Z,98327.50
2022-09-03T08:50:35.844Z,98327.38
2022-09-03T08:51:40.623Z,98328.94
2022-09-03T08:52:50.562Z,98334.72
2022-09-03T08:53:57.083Z,98324.13
2022-09-03T08:55:18.302Z,98327.56
2022-09-03T08:56:31.969Z,98330.66
2022-09-03T08:57:44.382Z,98329.84
2022-09-03T08:58:47.415Z,98329.84
2022-09-03T08:59:58.747Z,98333.25
2022-09-03T09:01:11.790Z,98332.19
2022-09-03T09:02:40.967Z,98328.28
2022-09-03T09:04:09.309Z,98331.06
2022-09-03T09:05:24.873Z,98329.22
2022-09-03T09:06:50.052Z,98324.47
2022-09-03T09:08:08.114Z,98327.62
2022-09-03T09:09:34.454Z,98325.63
2022-09-03T09:10:55.702Z,98322.63
2022-09-03T09:12:16.940Z,98311.91
2022-09-03T09:13:34.874Z,98318.13
2022-09-03T09:15:02.893Z,98313.50
2022-09-03T09:16:27.525Z,98314.59
2022-09-03T09:18:16.254Z,98315.81
2022-09-03T09:19:38.113Z,98315.38
2022-09-03T09:20:45.520Z,98314.09
2022-09-03T09:21:57.645Z,98310.44
2022-09-03T09:23:06.716Z,98310.09
2022-09-03T09:24:22.217Z,98310.09
2022-09-03T09:25:30.518Z,98309.31
2022-09-03T09:26:33.932Z,98307.78
2022-09-03T09:27:36.926Z,98311.63
2022-09-03T09:28:39.973Z,98312.72
2022-09-03T09:29:44.420Z,98305.50
2022-09-03T09:30:50.098Z,98299.72
2022-09-03T09:31:54.441Z,98308.53
2022-09-03T09:32:57.660Z,98305.09
2022-09-03T09:34:07.414Z,98315.03
2022-09-03T09:35:11.170Z,98311.22
2022-09-03T09:36:19.917Z,98306.56
2022-09-03T09:37:26.061Z,98306.63
2022-09-03T09:38:31.204Z,98306.63
2022-09-03T09:39:34.205Z,98305.88
2022-09-03T09:40:45.184Z,98300.87
2022-09-03T09:42:05.722Z,98307.03
2022-09-03T09:43:21.539Z,98311.53
2022-09-03T09:44:27.036Z,98314.19
2022-09-03T09:45:30.099Z,98308.03
2022-09-03T09:46:39.025Z,98308.31
2022-09-03T09:47:42.736Z,98307.50
2022-09-03T09:48:59.195Z,98305.72
2022-09-03T09:50:04.058Z,98314.22
2022-09-03T09:51:18.757Z,98312.78
2022-09-03T09:52:26.297Z,98308.53
2022-09-03T09:53:30.450Z,98314.69
2022-09-03T09:54:33.363Z,98307.78
2022-09-03T09:55:51.232Z,98306.63
2022-09-03T09:57:03.964Z,98308.16
2022-09-03T09:58:14.651Z,98320.03
2022-09-03T09:59:23.162Z,98308.94
2022-09-03T10:00:27.320Z,98310.31
2022-09-03T10:01:33.046Z,98305.56
2022-09-03T10:02:40.699Z,98312.66
2022-09-03T10:03:59.013Z,98309.59
2022-09-03T10:05:14.016Z,98309.41
2022-09-03T10:06:36.058Z,98306.53
2022-09-03T10:07:39.095Z,98317.53
2022-09-03T10:08:43.143Z,98313.12
2022-09-03T10:09:46.669Z,98306.28
2022-09-03T10:10:53.225Z,98314.53
2022-09-03T10:11:56.266Z,98314.47
2022-09-03T10:13:19.648Z,98311.06
2022-09-03T10:14:24.742Z,98309.75
2022-09-03T10:15:42.774Z,98305.53
2022-09-03T10:16:50.983Z,98305.91
2022-09-03T10:18:00.693Z,98307.56
2022-09-03T10:19:12.525Z,98313.12
2022-09-03T10:20:27.691Z,98312.66
2022-09-03T10:21:52.547Z,98313.81
2022-09-03T10:22:57.652Z,98316.91
2022-09-03T10:24:18.781Z,98314.31
2022-09-03T10:25:24.654Z,98317.31
2022-09-03T10:26:32.397Z,98311.44
2022-09-03T10:27:36.615Z,98313.47
2022-09-03T10:28:50.852Z,98302.66
2022-09-03T10:30:00.779Z,98304.94
2022-09-03T10:31:19.391Z,98306.16
2022-09-03T10:32:39.116Z,98305.41
2022-09-03T10:34:35.243Z,98305.81
2022-09-03T10:35:47.469Z,98300.00
2022-09-03T10:37:16.767Z,98300.25
2022-09-03T10:38:33.279Z,98295.84
2022-09-03T10:39:50.184Z,98294.97
2022-09-03T10:41:04.741Z,98300.38
2022-09-03T10:42:37.887Z,98304.44
2022-09-03T10:44:13.220Z,98298.38
2022-09-03T10:45:37.651Z,98299.00
2022-09-03T10:47:10.449Z,98299.81
2022-09-03T10:48:39.680Z,98299.81
2022-09-03T10:50:10.575Z,98296.19
2022-09-03T10:51:26.667Z,98293.44
2022-09-03T10:52:49.861Z,98289.88
2022-09-03T10:54:23.163Z,98287.38
2022-09-03T10:56:00.742Z,98287.06
2022-09-03T10:57:38.498Z,98274.84
2022-09-03T10:58:50.283Z,98281.41
2022-09-03T10:59:56.086Z,98278.53
2022-09-03T11:01:07.486Z,98274.19
2022-09-03T11:02:22.090Z,98275.22
2022-09-03T11:03:50.003Z,98273.56
2022-09-03T11:05:19.368Z,98273.78
2022-09-03T11:06:29.828Z,98275.56
2022-09-03T11:07:40.447Z,98276.34
2022-09-03T11:08:52.301Z,98277.63
2022-09-03T11:10:06.353Z,98277.50
2022-09-03T11:11:20.388Z,98273.00
2022-09-03T11:12:29.722Z,98270.97
2022-09-03T11:13:52.069Z,98274.72
2022-09-03T11:15:17.139Z,98272.03
2022-09-03T11:16:34.405Z,98277.09
2022-09-03T11:17:43.571Z,98275.41
2022-09-03T11:18:58.672Z,98269.72
2022-09-03T11:20:04.599Z,98272.59
2022-09-03T11:21:14.312Z,98272.47
2022-09-03T11:22:20.855Z,98271.47
2022-09-03T11:23:28.169Z,98273.47
2022-09-03T11:24:34.277Z,98270.66
2022-09-03T11:25:57.418Z,98271.25
2022-09-03T11:27:12.807Z,98277.69
2022-09-03T11:28:24.848Z,98281.13
2022-09-03T11:29:40.792Z,98272.00
2022-09-03T11:31:14.318Z,98288.38
2022-09-03T11:32:25.297Z,98276.53
2022-09-03T11:33:29.642Z,98283.56
2022-09-03T11:34:50.080Z,98286.69
2022-09-03T11:36:02.911Z,98283.88
2022-09-03T11:37:20.148Z,98280.09
2022-09-03T11:38:29.406Z,98275.28
2022-09-03T11:39:32.394Z,98275.19
2022-09-03T11:40:38.187Z,98276.44
2022-09-03T11:41:41.395Z,98265.91
2022-09-03T11:42:47.427Z,98271.09
2022-09-03T11:43:59.120Z,98266.50
2022-09-03T11:45:22.650Z,98277.63
2022-09-03T11:46:27.405Z,98277.97
2022-09-03T11:47:44.548Z,98283.59
2022-09-03T11:49:10.460Z,98281.62
2022-09-03T11:50:24.916Z,98281.25
2022-09-03T11:51:30.546Z,98280.78
2022-09-03T11:52:33.918Z,98275.00
2022-09-03T11:53:37.224Z,98274.09
2022-09-03T11:54:46.470Z,98269.09
2022-09-03T11:56:05.503Z,98279.06
2022-09-03T11:57:16.145Z,98275.91
2022-09-03T11:58:38.114Z,98272.25
2022-09-03T11:59:44.055Z,98264.22
2022-09-03T12:00:50.830Z,98275.81
2022-09-03T12:02:03.160Z,98281.69
2022-09-03T12:03:06.256Z,98275.62
2022-09-03T12:04:11.146Z,98288.94
2022-09-03T12:05:27.692Z,98282.97
2022-09-03T12:07:09.210Z,98288.69
2022-09-03T12:08:59.532Z,98285.13
2022-09-03T12:10:40.175Z,98293.34
2022-09-03T12:11:48.610Z,98289.59
2022-09-03T12:13:16.646Z,98292.56
2022-09-03T12:14:41.968Z,98291.31
2022-09-03T12:16:06.100Z,98281.31
2022-09-03T12:17:31.116Z,98280.03
2022-09-03T12:18:36.092Z,98271.72
2022-09-03T12:19:56.245Z,98274.78
2022-09-03T12:21:00.494Z,98282.28
2022-09-03T12:22:06.143Z,98274.22
2022-09-03T12:23:12.534Z,98269.47
2022-09-03T12:24:15.601Z,98275.56
2022-09-03T12:25:22.157Z,98269.41
2022-09-03T12:26:27.692Z,98274.91
2022-09-03T12:27:34.007Z,98264.56
2022-09-03T12:28:45.157Z,98270.31
2022-09-03T12:30:00.932Z,98272.72
2022-09-03T12:31:08.472Z,98279.59
2022-09-03T12:33:23.559Z,98268.22
2022-09-03T12:34:27.638Z,98264.97
2022-09-03T12:36:55.251Z,98265.22
2022-09-03T12:38:08.428Z,98260.66
2022-09-03T12:42:16.627Z,98269.28
2022-09-03T12:44:46.379Z,98262.59
2022-09-03T12:47:36.355Z,98260.34
2022-09-03T12:48:43.548Z,98269.22
2022-09-03T12:49:51.350Z,98261.13
2022-09-03T12:51:48.198Z,98257.81
2022-09-03T12:52:31.589Z,98254.50
2022-09-03T12:53:34.789Z,98269.66
2022-09-03T12:54:50.687Z,98268.91
2022-09-03T12:55:59.366Z,98269.50
2022-09-03T12:57:03.749Z,98265.63
2022-09-03T12:58:14.289Z,98270.72
2022-09-03T12:59:21.732Z,98269.16
2022-09-03T13:00:25.005Z,98272.47
2022-09-03T13:01:35.578Z,98269.47
2022-09-03T13:02:50.473Z,98257.63
2022-09-03T13:04:03.345Z,98262.63
2022-09-03T13:05:11.191Z,98265.75
2022-09-03T13:06:20.964Z,98263.06
2022-09-03T13:07:37.586Z,98266.09
2022-09-03T13:09:04.536Z,98279.56
2022-09-03T13:10:24.239Z,98263.97
2022-09-03T13:11:29.683Z,98263.94
2022-09-03T13:12:53.432Z,98266.25
2022-09-03T13:14:10.621Z,98270.47
2022-09-03T13:15:31.454Z,98265.22
2022-09-03T13:16:46.567Z,98264.06
2022-09-03T13:18:08.235Z,98260.44
2022-09-03T13:19:40.925Z,98257.81
2022-09-03T13:21:04.424Z,98255.34
2022-09-03T13:22:23.028Z,98248.44
2022-09-03T13:23:53.750Z,98267.94
2022-09-03T13:25:15.427Z,98252.94
2022-09-03T13:26:45.086Z,98251.12
2022-09-03T13:28:21.642Z,98246.72
2022-09-03T13:29:55.638Z,98250.00
2022-09-03T13:31:07.019Z,98241.88
2022-09-03T13:32:46.906Z,98248.84
2022-09-03T13:34:05.620Z,98253.13
2022-09-03T13:35:27.843Z,98253.97
2022-09-03T13:37:13.253Z,98245.97
2022-09-03T13:38:45.228Z,98250.31
2022-09-03T13:39:56.951Z,98248.44
2022-09-03T13:41:20.723Z,98241.72
2022-09-03T13:42:39.463Z,98240.75
2022-09-03T13:43:47.462Z,98243.94
2022-09-03T13:45:07.943Z,98236.41
2022-09-03T13:46:22.693Z,98252.47
2022-09-03T13:47:37.612Z,98242.44
2022-09-03T13:49:01.535Z,98235.44
2022-09-03T13:50:27.265Z,98233.22
2022-09-03T13:51:38.718Z,98238.16
2022-09-03T13:52:49.826Z,98233.88
2022-09-03T13:53:59.819Z,98229.22
2022-09-03T13:55:12.969Z,98225.03
2022-09-03T13:56:32.271Z,98235.09
2022-09-03T13:57:46.902Z,98236.91